Lamont, Michigan
Current Conditions -  °F | °C
As of 11:53 PM on Thursday 30 Oct 2014 (Local Time) from KGRR Reporting Station
Overcast Overcast  
Wind Chill: 41°   Ceiling: 4100
Heat Index: 45°   Visibility: 10mi
Dew Point: 39°   Wind: 7mph
Humidity: 80%   Direction: 210°SSW
Pressure: 29.99"   Gusts: NA
Location:  43.01°N, 85.91°W
Report Text: KGRR 310353Z 21006KT 10SM BKN041 OVC070 07/04 A2999 RMK AO2 SLP159 T00720039
Loading
Personal Weather Stations






























Interactive Weather Map
Tropical Storm Tracking
New forecast layout! Learn more

10-Day Weather Forecast

Advertisements
Track Severe Weather on mobile